sensor_id;sensor_type;location;lat;lon;timestamp;P1;durP1;ratioP1;P2;durP2;ratioP2
14903;SDS011;7543;53.148;8.234;2023-08-21T00:01:16;4.73;;;2.00;;
14903;SDS011;7543;53.148;8.234;2023-08-21T00:03:44;7.30;;;2.30;;
14903;SDS011;7543;53.148;8.234;2023-08-21T00:06:12;3.27;;;2.00;;
14903;SDS011;7543;53.148;8.234;2023-08-21T00:08:41;3.50;;;1.83;;
14903;SDS011;7543;53.148;8.234;2023-08-21T00:11:09;8.23;;;2.03;;
14903;SDS011;7543;53.148;8.234;2023-08-21T00:13:37;4.57;;;2.17;;
14903;SDS011;7543;53.148;8.234;2023-08-21T00:16:07;3.90;;;1.80;;
14903;SDS011;7543;53.148;8.234;2023-08-21T00:18:35;5.55;;;2.20;;
14903;SDS011;7543;53.148;8.234;2023-08-21T00:21:04;6.00;;;2.40;;
14903;SDS011;7543;53.148;8.234;2023-08-21T00:23:32;5.43;;;2.05;;
14903;SDS011;7543;53.148;8.234;2023-08-21T00:26:01;7.10;;;2.90;;
14903;SDS011;7543;53.148;8.234;2023-08-21T00:28:29;5.63;;;2.73;;
14903;SDS011;7543;53.148;8.234;2023-08-21T00:31:00;5.23;;;3.07;;
14903;SDS011;7543;53.148;8.234;2023-08-21T00:33:30;5.63;;;3.10;;
14903;SDS011;7543;53.148;8.234;2023-08-21T00:35:58;6.23;;;3.00;;
14903;SDS011;7543;53.148;8.234;2023-08-21T00:38:27;5.90;;;2.67;;
14903;SDS011;7543;53.148;8.234;2023-08-21T00:40:56;9.87;;;3.90;;
14903;SDS011;7543;53.148;8.234;2023-08-21T00:43:25;8.40;;;3.10;;
14903;SDS011;7543;53.148;8.234;2023-08-21T00:45:53;5.50;;;3.30;;
14903;SDS011;7543;53.148;8.234;2023-08-21T00:48:21;5.47;;;2.60;;
14903;SDS011;7543;53.148;8.234;2023-08-21T00:50:51;7.07;;;2.90;;
14903;SDS011;7543;53.148;8.234;2023-08-21T00:53:19;5.27;;;2.80;;
14903;SDS011;7543;53.148;8.234;2023-08-21T00:55:48;7.97;;;3.40;;
14903;SDS011;7543;53.148;8.234;2023-08-21T00:58:17;5.57;;;2.87;;
14903;SDS011;7543;53.148;8.234;2023-08-21T01:00:46;6.73;;;2.70;;
14903;SDS011;7543;53.148;8.234;2023-08-21T01:03:16;5.27;;;3.07;;
14903;SDS011;7543;53.148;8.234;2023-08-21T01:05:45;6.97;;;3.07;;
14903;SDS011;7543;53.148;8.234;2023-08-21T01:08:17;8.30;;;3.37;;
14903;SDS011;7543;53.148;8.234;2023-08-21T01:10:50;4.47;;;2.63;;
14903;SDS011;7543;53.148;8.234;2023-08-21T01:13:23;6.73;;;3.20;;
14903;SDS011;7543;53.148;8.234;2023-08-21T01:15:57;6.00;;;3.27;;
14903;SDS011;7543;53.148;8.234;2023-08-21T01:18:26;5.67;;;3.23;;
14903;SDS011;7543;53.148;8.234;2023-08-21T01:20:56;6.90;;;3.57;;
14903;SDS011;7543;53.148;8.234;2023-08-21T01:23:33;4.90;;;3.03;;
14903;SDS011;7543;53.148;8.234;2023-08-21T01:26:02;11.30;;;3.88;;
14903;SDS011;7543;53.148;8.234;2023-08-21T01:28:31;4.80;;;2.90;;
14903;SDS011;7543;53.148;8.234;2023-08-21T01:31:03;7.33;;;3.00;;
14903;SDS011;7543;53.148;8.234;2023-08-21T01:33:37;4.60;;;2.87;;
14903;SDS011;7543;53.148;8.234;2023-08-21T01:36:10;5.77;;;2.90;;
14903;SDS011;7543;53.148;8.234;2023-08-21T01:38:40;5.70;;;2.93;;
14903;SDS011;7543;53.148;8.234;2023-08-21T01:41:08;4.03;;;2.80;;
14903;SDS011;7543;53.148;8.234;2023-08-21T01:43:37;6.90;;;3.00;;
14903;SDS011;7543;53.148;8.234;2023-08-21T01:46:05;5.30;;;3.17;;
14903;SDS011;7543;53.148;8.234;2023-08-21T01:48:34;6.93;;;3.00;;
14903;SDS011;7543;53.148;8.234;2023-08-21T01:51:03;7.97;;;3.07;;
14903;SDS011;7543;53.148;8.234;2023-08-21T01:53:31;8.55;;;3.47;;
14903;SDS011;7543;53.148;8.234;2023-08-21T01:56:01;8.47;;;3.23;;
14903;SDS011;7543;53.148;8.234;2023-08-21T01:58:29;9.73;;;3.70;;
14903;SDS011;7543;53.148;8.234;2023-08-21T02:00:57;6.60;;;2.70;;
14903;SDS011;7543;53.148;8.234;2023-08-21T02:03:26;7.40;;;2.90;;
14903;SDS011;7543;53.148;8.234;2023-08-21T02:05:55;5.10;;;2.90;;
14903;SDS011;7543;53.148;8.234;2023-08-21T02:08:25;4.80;;;2.97;;
14903;SDS011;7543;53.148;8.234;2023-08-21T02:10:58;8.00;;;2.90;;
14903;SDS011;7543;53.148;8.234;2023-08-21T02:13:27;5.47;;;3.37;;
14903;SDS011;7543;53.148;8.234;2023-08-21T02:15:56;10.07;;;3.37;;
14903;SDS011;7543;53.148;8.234;2023-08-21T02:18:24;11.27;;;3.80;;
14903;SDS011;7543;53.148;8.234;2023-08-21T02:20:52;7.23;;;3.47;;
14903;SDS011;7543;53.148;8.234;2023-08-21T02:23:21;9.17;;;3.80;;
14903;SDS011;7543;53.148;8.234;2023-08-21T02:25:51;6.17;;;3.67;;
14903;SDS011;7543;53.148;8.234;2023-08-21T02:28:19;8.80;;;3.60;;
14903;SDS011;7543;53.148;8.234;2023-08-21T02:30:50;6.07;;;3.27;;
14903;SDS011;7543;53.148;8.234;2023-08-21T02:33:18;6.63;;;3.57;;
14903;SDS011;7543;53.148;8.234;2023-08-21T02:35:46;5.70;;;3.40;;
14903;SDS011;7543;53.148;8.234;2023-08-21T02:38:14;7.97;;;3.40;;
14903;SDS011;7543;53.148;8.234;2023-08-21T02:40:43;7.30;;;3.53;;
14903;SDS011;7543;53.148;8.234;2023-08-21T02:43:11;5.43;;;3.00;;
14903;SDS011;7543;53.148;8.234;2023-08-21T02:45:39;7.23;;;3.00;;
14903;SDS011;7543;53.148;8.234;2023-08-21T02:48:09;4.77;;;3.00;;
14903;SDS011;7543;53.148;8.234;2023-08-21T02:50:38;5.03;;;3.00;;
14903;SDS011;7543;53.148;8.234;2023-08-21T02:53:06;6.40;;;3.30;;
14903;SDS011;7543;53.148;8.234;2023-08-21T02:55:34;4.10;;;3.00;;
14903;SDS011;7543;53.148;8.234;2023-08-21T02:58:03;6.17;;;3.20;;
14903;SDS011;7543;53.148;8.234;2023-08-21T03:00:31;6.43;;;3.30;;
14903;SDS011;7543;53.148;8.234;2023-08-21T03:02:59;5.97;;;3.17;;
14903;SDS011;7543;53.148;8.234;2023-08-21T03:05:29;5.70;;;3.70;;
14903;SDS011;7543;53.148;8.234;2023-08-21T03:07:58;5.00;;;3.27;;
14903;SDS011;7543;53.148;8.234;2023-08-21T03:10:26;8.93;;;3.40;;
14903;SDS011;7543;53.148;8.234;2023-08-21T03:12:56;6.27;;;3.20;;
14903;SDS011;7543;53.148;8.234;2023-08-21T03:15:24;4.40;;;2.87;;
14903;SDS011;7543;53.148;8.234;2023-08-21T03:17:53;6.50;;;3.13;;
14903;SDS011;7543;53.148;8.234;2023-08-21T03:20:21;5.93;;;3.10;;
14903;SDS011;7543;53.148;8.234;2023-08-21T03:22:54;5.33;;;3.00;;
14903;SDS011;7543;53.148;8.234;2023-08-21T03:25:24;5.23;;;3.00;;
14903;SDS011;7543;53.148;8.234;2023-08-21T03:27:52;8.97;;;3.00;;
14903;SDS011;7543;53.148;8.234;2023-08-21T03:30:21;5.53;;;2.93;;
14903;SDS011;7543;53.148;8.234;2023-08-21T03:32:49;4.83;;;2.80;;
14903;SDS011;7543;53.148;8.234;2023-08-21T03:35:18;6.17;;;2.80;;
14903;SDS011;7543;53.148;8.234;2023-08-21T03:37:47;5.30;;;2.90;;
14903;SDS011;7543;53.148;8.234;2023-08-21T03:40:17;7.33;;;3.13;;
14903;SDS011;7543;53.148;8.234;2023-08-21T03:42:47;6.10;;;3.17;;
14903;SDS011;7543;53.148;8.234;2023-08-21T03:45:15;4.17;;;3.07;;
14903;SDS011;7543;53.148;8.234;2023-08-21T03:47:44;4.40;;;3.20;;
14903;SDS011;7543;53.148;8.234;2023-08-21T03:50:18;4.87;;;3.30;;
14903;SDS011;7543;53.148;8.234;2023-08-21T03:52:46;6.23;;;3.60;;
14903;SDS011;7543;53.148;8.234;2023-08-21T03:55:15;6.20;;;3.40;;
14903;SDS011;7543;53.148;8.234;2023-08-21T03:57:45;5.53;;;3.47;;
14903;SDS011;7543;53.148;8.234;2023-08-21T04:00:13;8.50;;;3.20;;
14903;SDS011;7543;53.148;8.234;2023-08-21T04:02:42;7.43;;;3.13;;
14903;SDS011;7543;53.148;8.234;2023-08-21T04:05:11;4.13;;;2.90;;
14903;SDS011;7543;53.148;8.234;2023-08-21T04:07:40;4.23;;;3.07;;
14903;SDS011;7543;53.148;8.234;2023-08-21T04:10:09;5.60;;;2.97;;
14903;SDS011;7543;53.148;8.234;2023-08-21T04:12:37;7.30;;;3.17;;
14903;SDS011;7543;53.148;8.234;2023-08-21T04:15:07;5.93;;;3.33;;
14903;SDS011;7543;53.148;8.234;2023-08-21T04:17:37;6.80;;;3.23;;
14903;SDS011;7543;53.148;8.234;2023-08-21T04:20:05;5.57;;;3.13;;
14903;SDS011;7543;53.148;8.234;2023-08-21T04:22:35;6.90;;;2.93;;
14903;SDS011;7543;53.148;8.234;2023-08-21T04:25:03;8.20;;;3.10;;
14903;SDS011;7543;53.148;8.234;2023-08-21T04:27:33;4.53;;;3.10;;
14903;SDS011;7543;53.148;8.234;2023-08-21T04:30:02;3.77;;;2.87;;
14903;SDS011;7543;53.148;8.234;2023-08-21T04:32:33;4.03;;;2.90;;
14903;SDS011;7543;53.148;8.234;2023-08-21T04:35:01;6.17;;;2.93;;
14903;SDS011;7543;53.148;8.234;2023-08-21T04:37:30;5.43;;;3.23;;
14903;SDS011;7543;53.148;8.234;2023-08-21T04:39:58;5.03;;;3.37;;
14903;SDS011;7543;53.148;8.234;2023-08-21T04:42:27;7.13;;;3.73;;
14903;SDS011;7543;53.148;8.234;2023-08-21T04:44:55;5.47;;;3.13;;
14903;SDS011;7543;53.148;8.234;2023-08-21T04:47:24;4.37;;;3.07;;
14903;SDS011;7543;53.148;8.234;2023-08-21T04:49:58;7.37;;;3.33;;
14903;SDS011;7543;53.148;8.234;2023-08-21T04:52:29;5.83;;;3.40;;
14903;SDS011;7543;53.148;8.234;2023-08-21T04:54:57;7.27;;;4.00;;
14903;SDS011;7543;53.148;8.234;2023-08-21T04:57:27;5.17;;;3.63;;
14903;SDS011;7543;53.148;8.234;2023-08-21T04:59:55;6.40;;;3.97;;
14903;SDS011;7543;53.148;8.234;2023-08-21T05:02:29;5.87;;;3.53;;
14903;SDS011;7543;53.148;8.234;2023-08-21T05:05:00;5.87;;;3.70;;
14903;SDS011;7543;53.148;8.234;2023-08-21T05:07:29;6.93;;;4.13;;
14903;SDS011;7543;53.148;8.234;2023-08-21T05:09:58;6.50;;;4.00;;
14903;SDS011;7543;53.148;8.234;2023-08-21T05:12:28;9.67;;;4.80;;
14903;SDS011;7543;53.148;8.234;2023-08-21T05:14:56;5.33;;;3.67;;
14903;SDS011;7543;53.148;8.234;2023-08-21T05:17:24;7.23;;;4.40;;
14903;SDS011;7543;53.148;8.234;2023-08-21T05:19:53;5.40;;;3.97;;
14903;SDS011;7543;53.148;8.234;2023-08-21T05:22:23;9.30;;;4.40;;
14903;SDS011;7543;53.148;8.234;2023-08-21T05:24:53;7.43;;;4.60;;
14903;SDS011;7543;53.148;8.234;2023-08-21T05:27:22;6.13;;;4.40;;
14903;SDS011;7543;53.148;8.234;2023-08-21T05:29:51;8.33;;;4.80;;
14903;SDS011;7543;53.148;8.234;2023-08-21T05:32:20;9.20;;;4.30;;
14903;SDS011;7543;53.148;8.234;2023-08-21T05:34:48;7.20;;;4.33;;
14903;SDS011;7543;53.148;8.234;2023-08-21T05:37:18;7.33;;;4.47;;
14903;SDS011;7543;53.148;8.234;2023-08-21T05:39:47;6.90;;;4.43;;
14903;SDS011;7543;53.148;8.234;2023-08-21T05:42:16;6.53;;;4.30;;
14903;SDS011;7543;53.148;8.234;2023-08-21T05:44:45;8.60;;;4.53;;
14903;SDS011;7543;53.148;8.234;2023-08-21T05:47:13;7.57;;;4.67;;
14903;SDS011;7543;53.148;8.234;2023-08-21T05:49:42;8.63;;;4.80;;
14903;SDS011;7543;53.148;8.234;2023-08-21T05:52:11;10.43;;;4.83;;
14903;SDS011;7543;53.148;8.234;2023-08-21T05:54:39;8.87;;;5.30;;
14903;SDS011;7543;53.148;8.234;2023-08-21T05:57:09;8.97;;;4.93;;
14903;SDS011;7543;53.148;8.234;2023-08-21T05:59:42;9.07;;;4.37;;
14903;SDS011;7543;53.148;8.234;2023-08-21T06:02:11;7.63;;;4.57;;
14903;SDS011;7543;53.148;8.234;2023-08-21T06:04:41;7.60;;;4.43;;
14903;SDS011;7543;53.148;8.234;2023-08-21T06:07:10;8.47;;;4.53;;
14903;SDS011;7543;53.148;8.234;2023-08-21T06:09:39;5.53;;;4.53;;
14903;SDS011;7543;53.148;8.234;2023-08-21T06:12:09;6.87;;;4.97;;
14903;SDS011;7543;53.148;8.234;2023-08-21T06:14:39;10.50;;;4.70;;
14903;SDS011;7543;53.148;8.234;2023-08-21T06:17:08;7.47;;;4.40;;
14903;SDS011;7543;53.148;8.234;2023-08-21T06:19:37;7.40;;;4.43;;
14903;SDS011;7543;53.148;8.234;2023-08-21T06:22:05;10.23;;;4.60;;
14903;SDS011;7543;53.148;8.234;2023-08-21T06:24:34;7.53;;;4.43;;
14903;SDS011;7543;53.148;8.234;2023-08-21T06:27:04;9.70;;;4.43;;
14903;SDS011;7543;53.148;8.234;2023-08-21T06:29:34;8.50;;;4.33;;
14903;SDS011;7543;53.148;8.234;2023-08-21T06:32:05;9.40;;;4.50;;
14903;SDS011;7543;53.148;8.234;2023-08-21T06:34:33;8.37;;;4.27;;
14903;SDS011;7543;53.148;8.234;2023-08-21T06:37:02;7.57;;;3.80;;
14903;SDS011;7543;53.148;8.234;2023-08-21T06:39:30;8.13;;;4.07;;
14903;SDS011;7543;53.148;8.234;2023-08-21T06:42:01;6.47;;;3.37;;
14903;SDS011;7543;53.148;8.234;2023-08-21T06:44:40;8.70;;;3.63;;
14903;SDS011;7543;53.148;8.234;2023-08-21T06:47:09;8.27;;;2.90;;
14903;SDS011;7543;53.148;8.234;2023-08-21T06:49:38;5.30;;;2.90;;
14903;SDS011;7543;53.148;8.234;2023-08-21T06:52:06;6.83;;;2.67;;
14903;SDS011;7543;53.148;8.234;2023-08-21T06:54:35;4.97;;;2.73;;
14903;SDS011;7543;53.148;8.234;2023-08-21T06:57:03;7.30;;;3.23;;
14903;SDS011;7543;53.148;8.234;2023-08-21T06:59:32;8.57;;;2.87;;
14903;SDS011;7543;53.148;8.234;2023-08-21T07:02:04;8.90;;;3.13;;
14903;SDS011;7543;53.148;8.234;2023-08-21T07:04:33;5.30;;;2.13;;
14903;SDS011;7543;53.148;8.234;2023-08-21T07:07:01;6.63;;;2.07;;
14903;SDS011;7543;53.148;8.234;2023-08-21T07:09:30;5.33;;;1.97;;
14903;SDS011;7543;53.148;8.234;2023-08-21T07:12:02;5.13;;;2.10;;
14903;SDS011;7543;53.148;8.234;2023-08-21T07:14:30;9.13;;;1.97;;
14903;SDS011;7543;53.148;8.234;2023-08-21T07:16:59;6.22;;;1.90;;
14903;SDS011;7543;53.148;8.234;2023-08-21T07:19:28;5.60;;;2.33;;
14903;SDS011;7543;53.148;8.234;2023-08-21T07:21:57;3.03;;;1.50;;
14903;SDS011;7543;53.148;8.234;2023-08-21T07:24:25;4.33;;;1.77;;
14903;SDS011;7543;53.148;8.234;2023-08-21T07:26:53;4.20;;;1.60;;
14903;SDS011;7543;53.148;8.234;2023-08-21T07:29:21;3.80;;;1.47;;
14903;SDS011;7543;53.148;8.234;2023-08-21T07:31:50;3.77;;;1.43;;
14903;SDS011;7543;53.148;8.234;2023-08-21T07:34:18;3.10;;;1.10;;
14903;SDS011;7543;53.148;8.234;2023-08-21T07:36:48;6.60;;;1.10;;
14903;SDS011;7543;53.148;8.234;2023-08-21T07:39:16;6.53;;;1.30;;
14903;SDS011;7543;53.148;8.234;2023-08-21T07:41:44;2.88;;;1.20;;
14903;SDS011;7543;53.148;8.234;2023-08-21T07:44:13;3.22;;;1.30;;
14903;SDS011;7543;53.148;8.234;2023-08-21T07:46:41;5.38;;;1.23;;
14903;SDS011;7543;53.148;8.234;2023-08-21T07:49:09;4.82;;;1.25;;
14903;SDS011;7543;53.148;8.234;2023-08-21T07:51:38;4.10;;;1.33;;
14903;SDS011;7543;53.148;8.234;2023-08-21T07:54:07;3.80;;;1.40;;
14903;SDS011;7543;53.148;8.234;2023-08-21T07:56:36;2.60;;;0.90;;
14903;SDS011;7543;53.148;8.234;2023-08-21T07:59:06;2.58;;;1.10;;
14903;SDS011;7543;53.148;8.234;2023-08-21T08:01:34;2.67;;;1.38;;
14903;SDS011;7543;53.148;8.234;2023-08-21T08:04:03;2.88;;;1.20;;
14903;SDS011;7543;53.148;8.234;2023-08-21T08:06:31;4.72;;;1.20;;
14903;SDS011;7543;53.148;8.234;2023-08-21T08:09:00;3.45;;;1.27;;
14903;SDS011;7543;53.148;8.234;2023-08-21T08:11:31;3.45;;;1.30;;
14903;SDS011;7543;53.148;8.234;2023-08-21T08:14:00;4.05;;;0.98;;
14903;SDS011;7543;53.148;8.234;2023-08-21T08:16:28;2.28;;;1.00;;
14903;SDS011;7543;53.148;8.234;2023-08-21T08:18:57;4.70;;;1.27;;
14903;SDS011;7543;53.148;8.234;2023-08-21T08:21:25;3.22;;;1.27;;
14903;SDS011;7543;53.148;8.234;2023-08-21T08:23:55;3.35;;;1.30;;
14903;SDS011;7543;53.148;8.234;2023-08-21T08:26:24;1.98;;;0.90;;
14903;SDS011;7543;53.148;8.234;2023-08-21T08:28:54;3.22;;;1.15;;
14903;SDS011;7543;53.148;8.234;2023-08-21T08:31:22;2.92;;;1.17;;
14903;SDS011;7543;53.148;8.234;2023-08-21T08:33:52;4.60;;;1.38;;
14903;SDS011;7543;53.148;8.234;2023-08-21T08:36:21;3.42;;;1.00;;
14903;SDS011;7543;53.148;8.234;2023-08-21T08:38:50;4.63;;;1.40;;
14903;SDS011;7543;53.148;8.234;2023-08-21T08:41:21;4.18;;;0.88;;
14903;SDS011;7543;53.148;8.234;2023-08-21T08:43:57;3.05;;;1.08;;
14903;SDS011;7543;53.148;8.234;2023-08-21T08:46:26;1.70;;;0.90;;
14903;SDS011;7543;53.148;8.234;2023-08-21T08:48:58;1.00;;;0.90;;
14903;SDS011;7543;53.148;8.234;2023-08-21T08:51:27;2.47;;;1.15;;
14903;SDS011;7543;53.148;8.234;2023-08-21T08:53:57;3.00;;;1.10;;
14903;SDS011;7543;53.148;8.234;2023-08-21T08:56:26;3.40;;;0.93;;
14903;SDS011;7543;53.148;8.234;2023-08-21T08:58:54;2.70;;;1.05;;
14903;SDS011;7543;53.148;8.234;2023-08-21T09:01:24;2.22;;;1.00;;
14903;SDS011;7543;53.148;8.234;2023-08-21T09:03:52;4.10;;;0.93;;
14903;SDS011;7543;53.148;8.234;2023-08-21T09:06:21;2.40;;;0.95;;
14903;SDS011;7543;53.148;8.234;2023-08-21T09:08:55;1.15;;;0.70;;
14903;SDS011;7543;53.148;8.234;2023-08-21T09:11:24;1.23;;;0.70;;
14903;SDS011;7543;53.148;8.234;2023-08-21T09:13:53;3.92;;;0.98;;
14903;SDS011;7543;53.148;8.234;2023-08-21T09:16:23;1.63;;;0.77;;
14903;SDS011;7543;53.148;8.234;2023-08-21T09:18:54;3.22;;;0.68;;
14903;SDS011;7543;53.148;8.234;2023-08-21T09:21:25;3.05;;;0.90;;
14903;SDS011;7543;53.148;8.234;2023-08-21T09:23:58;4.10;;;0.90;;
14903;SDS011;7543;53.148;8.234;2023-08-21T09:26:29;1.75;;;0.80;;
14903;SDS011;7543;53.148;8.234;2023-08-21T09:28:58;1.90;;;0.88;;
14903;SDS011;7543;53.148;8.234;2023-08-21T09:31:30;3.47;;;1.02;;
14903;SDS011;7543;53.148;8.234;2023-08-21T09:34:00;2.67;;;0.93;;
14903;SDS011;7543;53.148;8.234;2023-08-21T09:36:31;0.88;;;0.63;;
14903;SDS011;7543;53.148;8.234;2023-08-21T09:39:00;3.60;;;0.77;;
14903;SDS011;7543;53.148;8.234;2023-08-21T09:41:29;2.20;;;0.93;;
14903;SDS011;7543;53.148;8.234;2023-08-21T09:43:58;3.75;;;0.93;;
14903;SDS011;7543;53.148;8.234;2023-08-21T09:46:27;1.17;;;0.60;;
14903;SDS011;7543;53.148;8.234;2023-08-21T09:48:57;3.00;;;0.90;;
14903;SDS011;7543;53.148;8.234;2023-08-21T09:51:26;1.50;;;0.70;;
14903;SDS011;7543;53.148;8.234;2023-08-21T09:53:54;2.13;;;0.82;;
14903;SDS011;7543;53.148;8.234;2023-08-21T09:56:23;2.38;;;0.88;;
14903;SDS011;7543;53.148;8.234;2023-08-21T09:58:52;1.35;;;0.65;;
14903;SDS011;7543;53.148;8.234;2023-08-21T10:01:20;2.45;;;0.90;;
14903;SDS011;7543;53.148;8.234;2023-08-21T10:03:49;2.50;;;0.95;;
14903;SDS011;7543;53.148;8.234;2023-08-21T10:06:21;1.88;;;0.70;;
14903;SDS011;7543;53.148;8.234;2023-08-21T10:08:50;2.13;;;0.70;;
14903;SDS011;7543;53.148;8.234;2023-08-21T10:11:21;1.77;;;0.75;;
14903;SDS011;7543;53.148;8.234;2023-08-21T10:13:49;0.77;;;0.60;;
14903;SDS011;7543;53.148;8.234;2023-08-21T10:16:18;1.67;;;0.80;;
14903;SDS011;7543;53.148;8.234;2023-08-21T10:18:48;1.17;;;0.50;;
14903;SDS011;7543;53.148;8.234;2023-08-21T10:21:16;7.47;;;0.82;;
14903;SDS011;7543;53.148;8.234;2023-08-21T10:23:47;1.83;;;0.60;;
14903;SDS011;7543;53.148;8.234;2023-08-21T10:26:18;2.10;;;0.75;;
14903;SDS011;7543;53.148;8.234;2023-08-21T10:28:50;3.03;;;0.73;;
14903;SDS011;7543;53.148;8.234;2023-08-21T10:31:26;0.65;;;0.50;;
14903;SDS011;7543;53.148;8.234;2023-08-21T10:33:58;1.63;;;0.80;;
14903;SDS011;7543;53.148;8.234;2023-08-21T10:39:36;2.35;;;0.77;;
14903;SDS011;7543;53.148;8.234;2023-08-21T10:42:07;1.15;;;0.80;;
14903;SDS011;7543;53.148;8.234;2023-08-21T10:44:37;2.70;;;0.80;;
14903;SDS011;7543;53.148;8.234;2023-08-21T10:47:30;1.65;;;0.93;;
14903;SDS011;7543;53.148;8.234;2023-08-21T10:50:01;1.75;;;0.60;;
14903;SDS011;7543;53.148;8.234;2023-08-21T10:52:31;1.55;;;0.80;;
14903;SDS011;7543;53.148;8.234;2023-08-21T10:55:06;1.02;;;0.70;;
14903;SDS011;7543;53.148;8.234;2023-08-21T10:57:36;3.17;;;0.82;;
14903;SDS011;7543;53.148;8.234;2023-08-21T11:00:05;1.40;;;0.65;;
14903;SDS011;7543;53.148;8.234;2023-08-21T11:02:36;1.85;;;0.70;;
14903;SDS011;7543;53.148;8.234;2023-08-21T11:05:05;3.10;;;0.80;;
14903;SDS011;7543;53.148;8.234;2023-08-21T11:07:36;1.65;;;0.85;;
14903;SDS011;7543;53.148;8.234;2023-08-21T11:10:08;1.40;;;0.80;;
14903;SDS011;7543;53.148;8.234;2023-08-21T11:12:37;2.92;;;0.82;;
14903;SDS011;7543;53.148;8.234;2023-08-21T11:15:06;1.25;;;0.77;;
14903;SDS011;7543;53.148;8.234;2023-08-21T11:17:35;1.70;;;0.90;;
14903;SDS011;7543;53.148;8.234;2023-08-21T11:20:04;1.50;;;0.80;;
14903;SDS011;7543;53.148;8.234;2023-08-21T11:22:35;2.42;;;0.95;;
14903;SDS011;7543;53.148;8.234;2023-08-21T11:25:03;3.70;;;0.80;;
14903;SDS011;7543;53.148;8.234;2023-08-21T11:27:34;1.23;;;0.75;;
14903;SDS011;7543;53.148;8.234;2023-08-21T11:30:03;1.55;;;0.60;;
14903;SDS011;7543;53.148;8.234;2023-08-21T11:32:32;1.17;;;0.63;;
14903;SDS011;7543;53.148;8.234;2023-08-21T11:35:01;3.53;;;1.05;;
14903;SDS011;7543;53.148;8.234;2023-08-21T11:37:30;3.25;;;0.75;;
14903;SDS011;7543;53.148;8.234;2023-08-21T11:39:58;1.88;;;0.93;;
14903;SDS011;7543;53.148;8.234;2023-08-21T11:42:28;1.55;;;0.65;;
14903;SDS011;7543;53.148;8.234;2023-08-21T11:44:59;1.17;;;0.90;;
14903;SDS011;7543;53.148;8.234;2023-08-21T11:47:30;2.15;;;0.70;;
14903;SDS011;7543;53.148;8.234;2023-08-21T11:50:01;0.98;;;0.88;;
14903;SDS011;7543;53.148;8.234;2023-08-21T11:52:30;1.38;;;0.90;;
14903;SDS011;7543;53.148;8.234;2023-08-21T11:54:59;2.22;;;1.00;;
14903;SDS011;7543;53.148;8.234;2023-08-21T11:57:27;1.95;;;0.70;;
14903;SDS011;7543;53.148;8.234;2023-08-21T11:59:56;2.22;;;0.85;;
14903;SDS011;7543;53.148;8.234;2023-08-21T12:02:26;1.80;;;0.85;;
14903;SDS011;7543;53.148;8.234;2023-08-21T12:05:00;1.52;;;0.80;;
14903;SDS011;7543;53.148;8.234;2023-08-21T12:07:30;1.50;;;0.73;;
14903;SDS011;7543;53.148;8.234;2023-08-21T12:09:58;1.63;;;0.80;;
14903;SDS011;7543;53.148;8.234;2023-08-21T12:12:27;1.38;;;0.70;;
14903;SDS011;7543;53.148;8.234;2023-08-21T12:14:55;4.50;;;1.00;;
14903;SDS011;7543;53.148;8.234;2023-08-21T12:17:26;2.35;;;1.17;;
14903;SDS011;7543;53.148;8.234;2023-08-21T12:19:54;0.85;;;0.70;;
14903;SDS011;7543;53.148;8.234;2023-08-21T12:22:22;1.38;;;0.90;;
14903;SDS011;7543;53.148;8.234;2023-08-21T12:24:51;2.83;;;0.88;;
14903;SDS011;7543;53.148;8.234;2023-08-21T12:27:19;1.73;;;0.70;;
14903;SDS011;7543;53.148;8.234;2023-08-21T12:29:49;2.40;;;1.02;;
14903;SDS011;7543;53.148;8.234;2023-08-21T12:32:17;2.53;;;1.05;;
14903;SDS011;7543;53.148;8.234;2023-08-21T12:34:47;1.25;;;0.70;;
14903;SDS011;7543;53.148;8.234;2023-08-21T12:37:15;0.77;;;0.70;;
14903;SDS011;7543;53.148;8.234;2023-08-21T12:39:43;3.85;;;1.02;;
14903;SDS011;7543;53.148;8.234;2023-08-21T12:42:12;1.15;;;0.63;;
14903;SDS011;7543;53.148;8.234;2023-08-21T12:44:40;1.08;;;0.70;;
14903;SDS011;7543;53.148;8.234;2023-08-21T12:47:08;1.58;;;0.90;;
14903;SDS011;7543;53.148;8.234;2023-08-21T12:49:37;2.63;;;0.90;;
14903;SDS011;7543;53.148;8.234;2023-08-21T12:52:06;1.80;;;0.93;;
14903;SDS011;7543;53.148;8.234;2023-08-21T12:54:35;1.60;;;0.77;;
14903;SDS011;7543;53.148;8.234;2023-08-21T12:57:03;1.63;;;0.93;;
14903;SDS011;7543;53.148;8.234;2023-08-21T12:59:32;1.50;;;0.73;;
14903;SDS011;7543;53.148;8.234;2023-08-21T13:02:01;1.60;;;0.60;;
14903;SDS011;7543;53.148;8.234;2023-08-21T13:04:30;2.80;;;0.82;;
14903;SDS011;7543;53.148;8.234;2023-08-21T13:06:58;2.85;;;1.00;;
14903;SDS011;7543;53.148;8.234;2023-08-21T13:09:28;2.05;;;0.73;;
14903;SDS011;7543;53.148;8.234;2023-08-21T13:11:57;2.05;;;0.65;;
14903;SDS011;7543;53.148;8.234;2023-08-21T13:14:25;1.25;;;0.90;;
14903;SDS011;7543;53.148;8.234;2023-08-21T13:16:53;1.38;;;0.65;;
14903;SDS011;7543;53.148;8.234;2023-08-21T13:19:22;1.98;;;0.80;;
14903;SDS011;7543;53.148;8.234;2023-08-21T13:21:50;1.85;;;0.82;;
14903;SDS011;7543;53.148;8.234;2023-08-21T13:24:20;2.17;;;0.73;;
14903;SDS011;7543;53.148;8.234;2023-08-21T13:26:50;2.15;;;0.70;;
14903;SDS011;7543;53.148;8.234;2023-08-21T13:29:19;0.82;;;0.70;;
14903;SDS011;7543;53.148;8.234;2023-08-21T13:31:49;2.20;;;0.90;;
14903;SDS011;7543;53.148;8.234;2023-08-21T13:34:17;1.23;;;0.73;;
14903;SDS011;7543;53.148;8.234;2023-08-21T13:36:47;2.17;;;0.93;;
14903;SDS011;7543;53.148;8.234;2023-08-21T13:39:15;1.90;;;0.95;;
14903;SDS011;7543;53.148;8.234;2023-08-21T13:41:44;0.80;;;0.80;;
14903;SDS011;7543;53.148;8.234;2023-08-21T13:44:13;2.85;;;0.80;;
14903;SDS011;7543;53.148;8.234;2023-08-21T13:46:42;1.75;;;0.75;;
14903;SDS011;7543;53.148;8.234;2023-08-21T13:49:10;1.20;;;0.70;;
14903;SDS011;7543;53.148;8.234;2023-08-21T13:51:38;2.00;;;0.90;;
14903;SDS011;7543;53.148;8.234;2023-08-21T13:54:07;2.92;;;1.00;;
14903;SDS011;7543;53.148;8.234;2023-08-21T13:56:35;1.30;;;0.70;;
14903;SDS011;7543;53.148;8.234;2023-08-21T13:59:03;2.00;;;0.85;;
14903;SDS011;7543;53.148;8.234;2023-08-21T14:01:34;2.92;;;0.77;;
14903;SDS011;7543;53.148;8.234;2023-08-21T14:04:03;1.13;;;0.60;;
14903;SDS011;7543;53.148;8.234;2023-08-21T14:06:31;0.85;;;0.60;;
14903;SDS011;7543;53.148;8.234;2023-08-21T14:09:00;1.20;;;0.70;;
14903;SDS011;7543;53.148;8.234;2023-08-21T14:11:28;1.20;;;0.80;;
14903;SDS011;7543;53.148;8.234;2023-08-21T14:13:56;1.33;;;0.73;;
14903;SDS011;7543;53.148;8.234;2023-08-21T14:16:25;1.95;;;0.90;;
14903;SDS011;7543;53.148;8.234;2023-08-21T14:18:54;1.40;;;0.70;;
14903;SDS011;7543;53.148;8.234;2023-08-21T14:21:23;2.83;;;0.85;;
14903;SDS011;7543;53.148;8.234;2023-08-21T14:23:51;1.42;;;0.70;;
14903;SDS011;7543;53.148;8.234;2023-08-21T14:26:20;1.00;;;0.60;;
14903;SDS011;7543;53.148;8.234;2023-08-21T14:28:51;0.73;;;0.63;;
14903;SDS011;7543;53.148;8.234;2023-08-21T14:31:19;1.38;;;0.80;;
14903;SDS011;7543;53.148;8.234;2023-08-21T14:33:48;1.25;;;0.57;;
14903;SDS011;7543;53.148;8.234;2023-08-21T14:36:18;1.65;;;0.75;;
14903;SDS011;7543;53.148;8.234;2023-08-21T14:38:47;1.10;;;0.65;;
14903;SDS011;7543;53.148;8.234;2023-08-21T14:41:16;2.65;;;0.80;;
14903;SDS011;7543;53.148;8.234;2023-08-21T14:43:44;2.15;;;0.77;;
14903;SDS011;7543;53.148;8.234;2023-08-21T14:46:13;3.03;;;0.70;;
14903;SDS011;7543;53.148;8.234;2023-08-21T14:48:41;2.25;;;0.88;;
14903;SDS011;7543;53.148;8.234;2023-08-21T14:51:10;2.45;;;1.10;;
14903;SDS011;7543;53.148;8.234;2023-08-21T14:53:39;3.92;;;0.90;;
14903;SDS011;7543;53.148;8.234;2023-08-21T14:56:08;1.52;;;0.98;;
14903;SDS011;7543;53.148;8.234;2023-08-21T14:58:36;1.58;;;0.70;;
14903;SDS011;7543;53.148;8.234;2023-08-21T15:01:05;1.58;;;0.88;;
14903;SDS011;7543;53.148;8.234;2023-08-21T15:03:33;1.85;;;0.93;;
14903;SDS011;7543;53.148;8.234;2023-08-21T15:06:01;0.93;;;0.80;;
14903;SDS011;7543;53.148;8.234;2023-08-21T15:08:30;2.22;;;0.93;;
14903;SDS011;7543;53.148;8.234;2023-08-21T15:10:59;1.52;;;0.82;;
14903;SDS011;7543;53.148;8.234;2023-08-21T15:13:28;2.55;;;0.80;;
14903;SDS011;7543;53.148;8.234;2023-08-21T15:15:56;1.30;;;0.70;;